createdAt,value
2022-08-07T00:01:43.766Z,4.57
2022-08-07T00:04:09.617Z,3.47
2022-08-07T00:06:40.917Z,3.30
2022-08-07T00:09:21.403Z,3.20
2022-08-07T00:11:55.742Z,2.93
2022-08-07T00:14:30.992Z,3.63
2022-08-07T00:17:01.575Z,5.87
2022-08-07T00:20:00.481Z,5.03
2022-08-07T00:22:24.782Z,3.87
2022-08-07T00:25:07.074Z,3.47
2022-08-07T00:27:53.199Z,3.77
2022-08-07T00:30:28.002Z,4.17
2022-08-07T00:32:57.461Z,3.50
2022-08-07T00:35:29.827Z,3.33
2022-08-07T00:37:59.573Z,3.57
2022-08-07T00:40:39.604Z,4.00
2022-08-07T00:43:14.067Z,3.70
2022-08-07T00:45:59.126Z,3.40
2022-08-07T00:48:30.850Z,3.73
2022-08-07T00:51:01.177Z,3.73
2022-08-07T00:53:38.565Z,4.23
2022-08-07T00:56:15.485Z,4.70
2022-08-07T00:58:47.450Z,3.90
2022-08-07T01:01:20.362Z,5.07
2022-08-07T01:03:56.313Z,4.57
2022-08-07T01:06:30.445Z,4.37
2022-08-07T01:09:01.577Z,4.30
2022-08-07T01:12:26.567Z,4.57
2022-08-07T01:14:28.411Z,4.80
2022-08-07T01:16:58.018Z,4.50
2022-08-07T01:19:28.168Z,5.30
2022-08-07T01:22:03.437Z,4.77
2022-08-07T01:24:37.438Z,4.90
2022-08-07T01:27:06.538Z,5.23
2022-08-07T01:29:48.285Z,3.93
2022-08-07T01:32:19.457Z,4.77
2022-08-07T01:34:52.142Z,4.10
2022-08-07T01:37:22.474Z,3.80
2022-08-07T01:39:51.691Z,3.37
2022-08-07T01:42:40.263Z,3.80
2022-08-07T01:45:17.895Z,2.90
2022-08-07T01:48:18.114Z,3.23
2022-08-07T01:50:40.257Z,3.17
2022-08-07T01:53:20.989Z,3.60
2022-08-07T01:55:57.978Z,3.13
2022-08-07T01:58:33.940Z,3.07
2022-08-07T02:01:59.052Z,2.30
2022-08-07T02:04:15.498Z,2.30
2022-08-07T02:06:45.871Z,2.43
2022-08-07T02:09:33.449Z,2.00
2022-08-07T02:12:18.139Z,2.13
2022-08-07T02:14:50.906Z,1.70
2022-08-07T02:17:27.733Z,1.70
2022-08-07T02:20:05.628Z,2.40
2022-08-07T02:22:41.186Z,1.87
2022-08-07T02:25:18.093Z,1.87
2022-08-07T02:27:51.973Z,2.07
2022-08-07T02:30:21.461Z,2.07
2022-08-07T02:33:03.679Z,2.00
2022-08-07T02:36:28.340Z,2.17
2022-08-07T02:38:31.572Z,2.47
2022-08-07T02:41:03.782Z,2.10
2022-08-07T02:43:34.496Z,2.33
2022-08-07T02:46:05.967Z,2.47
2022-08-07T02:48:34.749Z,2.60
2022-08-07T02:51:28.859Z,2.23
2022-08-07T02:54:00.970Z,2.40
2022-08-07T02:56:33.468Z,2.50
2022-08-07T02:59:05.843Z,2.67
2022-08-07T03:01:36.271Z,2.40
2022-08-07T03:04:12.443Z,2.43
2022-08-07T03:06:44.835Z,2.60
2022-08-07T03:09:43.455Z,2.87
2022-08-07T03:12:06.686Z,2.33
2022-08-07T03:14:37.727Z,2.30
2022-08-07T03:17:08.761Z,2.63
2022-08-07T03:19:37.646Z,2.70
2022-08-07T03:22:07.315Z,2.53
2022-08-07T03:24:47.962Z,3.17
2022-08-07T03:27:30.890Z,2.70
2022-08-07T03:30:07.830Z,2.70
2022-08-07T03:32:49.320Z,2.80
2022-08-07T03:35:43.510Z,2.87
2022-08-07T03:38:15.209Z,2.87
2022-08-07T03:40:44.975Z,2.77
2022-08-07T03:43:23.603Z,2.70
2022-08-07T03:45:55.360Z,2.70
2022-08-07T03:48:23.931Z,2.97
2022-08-07T03:50:57.781Z,2.63
2022-08-07T03:54:00.785Z,2.50
2022-08-07T03:56:33.338Z,2.50
2022-08-07T03:59:08.527Z,2.70
2022-08-07T04:01:45.335Z,2.90
2022-08-07T04:04:17.153Z,2.60
2022-08-07T04:06:50.957Z,2.70
2022-08-07T04:09:23.200Z,2.60
2022-08-07T04:12:26.678Z,2.27
2022-08-07T04:14:47.826Z,2.23
2022-08-07T04:17:20.946Z,2.50
2022-08-07T04:19:54.472Z,2.50
2022-08-07T04:22:28.842Z,2.77
2022-08-07T04:25:01.360Z,2.87
2022-08-07T04:27:35.604Z,2.40
2022-08-07T04:30:13.359Z,2.83
2022-08-07T04:32:58.226Z,2.30
2022-08-07T04:35:27.478Z,2.40
2022-08-07T04:38:07.967Z,2.57
2022-08-07T04:40:52.088Z,2.67
2022-08-07T04:43:53.423Z,2.63
2022-08-07T04:46:29.283Z,2.93
2022-08-07T04:49:18.066Z,2.40
2022-08-07T04:52:05.326Z,2.50
2022-08-07T04:54:40.422Z,2.40
2022-08-07T04:58:10.762Z,2.47
2022-08-07T05:00:17.449Z,2.40
2022-08-07T05:03:01.441Z,2.07
2022-08-07T05:05:53.256Z,2.30
2022-08-07T05:08:59.328Z,2.40
2022-08-07T05:11:57.560Z,2.40
2022-08-07T05:14:54.220Z,2.23
2022-08-07T05:17:51.805Z,2.30
2022-08-07T05:20:12.880Z,2.40
2022-08-07T05:22:44.770Z,1.70
2022-08-07T05:25:25.892Z,1.80
2022-08-07T05:28:20.345Z,1.53
2022-08-07T05:30:53.562Z,1.80
2022-08-07T05:33:22.914Z,1.77
2022-08-07T05:35:55.096Z,1.70
2022-08-07T05:38:59.763Z,1.70
2022-08-07T05:41:16.750Z,1.80
2022-08-07T05:44:11.971Z,1.93
2022-08-07T05:46:43.022Z,1.73
2022-08-07T05:49:14.272Z,2.07
2022-08-07T05:51:46.924Z,1.93
2022-08-07T05:54:31.417Z,2.00
2022-08-07T05:57:05.621Z,2.20
2022-08-07T05:59:55.824Z,1.80
2022-08-07T06:02:30.821Z,1.80
2022-08-07T06:05:05.629Z,1.67
2022-08-07T06:08:14.236Z,1.77
2022-08-07T06:10:25.613Z,1.70
2022-08-07T06:12:54.612Z,1.97
2022-08-07T06:15:38.513Z,1.90
2022-08-07T06:18:11.066Z,1.73
2022-08-07T06:20:50.887Z,1.70
2022-08-07T06:24:38.439Z,1.80
2022-08-07T06:26:21.669Z,1.80
2022-08-07T06:29:01.086Z,2.10
2022-08-07T06:31:46.951Z,2.10
2022-08-07T06:34:20.430Z,1.87
2022-08-07T06:36:52.171Z,1.70
2022-08-07T06:40:16.345Z,1.50
2022-08-07T06:42:19.221Z,1.60
2022-08-07T06:44:51.266Z,1.80
2022-08-07T06:47:20.959Z,1.50
2022-08-07T06:49:51.625Z,1.60
2022-08-07T06:52:31.410Z,1.40
2022-08-07T06:55:31.569Z,1.93
2022-08-07T06:58:03.105Z,1.73
2022-08-07T07:00:36.752Z,1.50
2022-08-07T07:03:11.069Z,1.70
2022-08-07T07:06:04.394Z,1.70
2022-08-07T07:08:33.188Z,1.60
2022-08-07T07:11:14.008Z,1.47
2022-08-07T07:13:58.029Z,1.73
2022-08-07T07:16:39.034Z,1.60
2022-08-07T07:19:56.480Z,1.50
2022-08-07T07:22:34.104Z,1.70
2022-08-07T07:25:14.030Z,1.50
2022-08-07T07:28:03.252Z,1.50
2022-08-07T07:30:40.745Z,1.67
2022-08-07T07:33:13.923Z,1.80
2022-08-07T07:36:04.866Z,1.60
2022-08-07T07:38:36.009Z,1.30
2022-08-07T07:41:09.407Z,1.57
2022-08-07T07:44:14.567Z,1.33
2022-08-07T07:46:54.241Z,1.53
2022-08-07T07:50:35.564Z,1.30
2022-08-07T07:52:17.231Z,1.30
2022-08-07T07:54:51.429Z,1.20
2022-08-07T07:57:43.963Z,1.00
2022-08-07T08:00:28.809Z,1.30
2022-08-07T08:03:06.099Z,1.20
2022-08-07T08:05:50.504Z,0.93
2022-08-07T08:08:34.624Z,1.00
2022-08-07T08:11:16.600Z,1.13
2022-08-07T08:13:55.249Z,1.13
2022-08-07T08:18:36.900Z,1.00
2022-08-07T08:20:18.993Z,1.13
2022-08-07T08:22:36.639Z,1.03
2022-08-07T08:25:42.192Z,1.00
2022-08-07T08:28:23.772Z,0.90
2022-08-07T08:31:14.784Z,1.30
2022-08-07T08:33:55.530Z,1.00
2022-08-07T08:36:30.605Z,0.80
2022-08-07T08:39:02.626Z,0.90
2022-08-07T08:41:57.362Z,1.07
2022-08-07T08:44:41.235Z,1.00
2022-08-07T08:47:27.895Z,0.80
2022-08-07T08:50:18.996Z,1.10
2022-08-07T08:53:10.634Z,1.03
2022-08-07T08:55:55.284Z,0.90
2022-08-07T08:58:37.177Z,1.10
2022-08-07T09:01:18.662Z,1.00
2022-08-07T09:04:06.975Z,0.90
2022-08-07T09:06:47.962Z,0.87
2022-08-07T09:09:41.749Z,0.90
2022-08-07T09:12:31.284Z,0.90
2022-08-07T09:16:25.604Z,0.83
2022-08-07T09:18:37.779Z,0.93
2022-08-07T09:21:33.877Z,0.90
2022-08-07T09:24:59.654Z,0.80
2022-08-07T09:27:38.305Z,1.07
2022-08-07T09:30:28.038Z,1.10
2022-08-07T09:33:16.501Z,1.10
2022-08-07T09:36:03.839Z,1.17
2022-08-07T09:38:53.511Z,1.17
2022-08-07T09:41:36.152Z,0.90
2022-08-07T09:44:32.839Z,1.13
2022-08-07T09:47:50.579Z,1.27
2022-08-07T09:50:20.077Z,1.02
2022-08-07T09:52:53.903Z,1.10
2022-08-07T09:55:29.525Z,0.93
2022-08-07T09:58:58.828Z,0.98
2022-08-07T10:02:03.229Z,1.13
2022-08-07T10:05:12.350Z,1.10
2022-08-07T10:07:59.267Z,1.10
2022-08-07T10:11:16.509Z,1.08
2022-08-07T10:14:00.337Z,1.60
2022-08-07T10:17:01.131Z,1.05
2022-08-07T10:19:48.336Z,1.20
2022-08-07T10:22:43.266Z,0.93
2022-08-07T10:25:42.109Z,1.10
2022-08-07T10:28:30.676Z,1.10
2022-08-07T10:31:39.118Z,1.20
2022-08-07T10:34:32.144Z,0.90
2022-08-07T10:37:48.276Z,0.90
2022-08-07T10:40:16.606Z,1.00
2022-08-07T10:43:03.112Z,1.10
2022-08-07T10:45:45.385Z,1.23
2022-08-07T10:48:48.589Z,1.10
2022-08-07T10:51:57.705Z,0.90
2022-08-07T10:54:19.335Z,0.88
2022-08-07T10:57:11.770Z,1.10
2022-08-07T11:00:05.633Z,0.82
2022-08-07T11:02:41.682Z,0.98
2022-08-07T11:05:50.624Z,0.90
2022-08-07T11:08:32.568Z,1.23
2022-08-07T11:11:09.178Z,0.80
2022-08-07T11:14:45.418Z,0.95
2022-08-07T11:16:42.482Z,0.90
2022-08-07T11:19:21.737Z,0.70
2022-08-07T11:22:18.952Z,0.80
2022-08-07T11:25:18.128Z,0.90
2022-08-07T11:28:01.364Z,0.85
2022-08-07T11:30:43.906Z,0.82
2022-08-07T11:33:53.321Z,0.90
2022-08-07T11:36:32.188Z,0.93
2022-08-07T11:39:20.061Z,1.10
2022-08-07T11:42:02.827Z,0.90
2022-08-07T11:44:52.676Z,1.10
2022-08-07T11:47:55.989Z,1.10
2022-08-07T11:50:57.139Z,1.00
2022-08-07T11:53:43.276Z,0.90
2022-08-07T11:56:53.250Z,0.90
2022-08-07T12:00:10.777Z,1.05
2022-08-07T12:03:45.063Z,0.90
2022-08-07T12:06:55.385Z,1.08
2022-08-07T12:09:36.735Z,1.00
2022-08-07T12:12:12.308Z,1.25
2022-08-07T12:14:55.728Z,1.30
2022-08-07T12:17:55.899Z,1.42
2022-08-07T12:20:36.508Z,1.15
2022-08-07T12:24:04.844Z,1.00
2022-08-07T12:26:33.623Z,0.98
2022-08-07T12:29:14.438Z,1.30
2022-08-07T12:32:02.266Z,1.45
2022-08-07T12:34:38.130Z,1.00
2022-08-07T12:37:16.790Z,1.10
2022-08-07T12:39:54.506Z,1.13
2022-08-07T12:42:31.860Z,1.10
2022-08-07T12:45:10.731Z,1.10
2022-08-07T12:47:50.716Z,1.30
2022-08-07T12:50:39.080Z,1.35
2022-08-07T12:53:17.651Z,1.20
2022-08-07T12:56:03.615Z,1.20
2022-08-07T12:58:39.922Z,1.20
2022-08-07T13:01:37.237Z,1.67
2022-08-07T13:04:35.738Z,1.42
2022-08-07T13:08:13.464Z,1.40
2022-08-07T13:10:51.387Z,1.50
2022-08-07T13:13:49.096Z,1.25
2022-08-07T13:16:32.904Z,1.48
2022-08-07T13:19:35.253Z,1.70
2022-08-07T13:22:26.896Z,1.55
2022-08-07T13:25:06.016Z,1.42
2022-08-07T13:28:11.724Z,1.60
2022-08-07T13:30:40.345Z,1.88
2022-08-07T13:34:31.382Z,1.40
2022-08-07T13:36:21.018Z,1.52
2022-08-07T13:39:05.117Z,1.58
2022-08-07T13:41:47.593Z,1.48
2022-08-07T13:44:25.870Z,1.67
2022-08-07T13:46:59.349Z,1.42
2022-08-07T13:50:34.003Z,1.75
2022-08-07T13:52:38.090Z,1.67
2022-08-07T13:55:19.583Z,1.77
2022-08-07T13:58:28.067Z,1.60
2022-08-07T14:01:09.338Z,1.70
2022-08-07T14:04:05.391Z,1.42
2022-08-07T14:06:34.389Z,1.70
2022-08-07T14:09:06.433Z,2.00
2022-08-07T14:12:00.473Z,1.75
2022-08-07T14:14:41.422Z,1.60
2022-08-07T14:18:13.030Z,1.95
2022-08-07T14:20:41.760Z,1.60
2022-08-07T14:23:08.602Z,1.42
2022-08-07T14:25:45.827Z,1.65
2022-08-07T14:28:19.284Z,1.50
2022-08-07T14:30:52.081Z,1.70
2022-08-07T14:33:22.617Z,1.60
2022-08-07T14:35:57.424Z,1.75
2022-08-07T14:38:31.591Z,1.58
2022-08-07T14:44:11.555Z,1.55
2022-08-07T14:46:51.863Z,1.65
2022-08-07T14:49:58.538Z,1.60
2022-08-07T14:52:27.743Z,1.50
2022-08-07T14:55:00.687Z,1.80
2022-08-07T15:00:29.857Z,1.70
2022-08-07T15:03:19.835Z,1.55
2022-08-07T15:11:53.271Z,1.30
2022-08-07T15:14:32.290Z,1.52
2022-08-07T15:17:04.445Z,1.60
2022-08-07T15:22:33.546Z,1.63
2022-08-07T15:25:17.977Z,1.63
2022-08-07T15:28:32.146Z,1.55
2022-08-07T15:31:04.922Z,1.50
2022-08-07T15:33:36.886Z,1.60
2022-08-07T15:36:08.646Z,1.57
2022-08-07T15:38:59.277Z,1.70
2022-08-07T15:42:44.982Z,1.77
2022-08-07T15:44:24.027Z,1.40
2022-08-07T15:47:03.347Z,1.50
2022-08-07T15:50:05.069Z,1.60
2022-08-07T15:52:38.227Z,1.87
2022-08-07T15:55:12.368Z,1.63
2022-08-07T15:57:48.435Z,1.67
2022-08-07T16:00:31.336Z,1.73
2022-08-07T16:03:21.761Z,1.60
2022-08-07T16:06:01.529Z,1.40
2022-08-07T16:08:38.813Z,1.80
2022-08-07T16:11:26.616Z,1.40
2022-08-07T16:14:10.709Z,1.50
2022-08-07T16:17:14.821Z,1.50
2022-08-07T16:20:33.676Z,1.50
2022-08-07T16:23:53.905Z,1.80
2022-08-07T16:26:34.143Z,1.50
2022-08-07T16:30:06.674Z,1.43
2022-08-07T16:32:33.218Z,1.60
2022-08-07T16:35:51.447Z,1.53
2022-08-07T16:39:00.675Z,1.30
2022-08-07T16:41:54.022Z,1.37
2022-08-07T16:45:14.132Z,1.50
2022-08-07T16:48:28.724Z,1.63
2022-08-07T16:51:54.405Z,1.50
2022-08-07T16:54:34.735Z,1.43
2022-08-07T16:58:00.762Z,1.53
2022-08-07T17:00:17.378Z,1.50
2022-08-07T17:03:17.771Z,1.60
2022-08-07T17:06:29.958Z,1.33
2022-08-07T17:09:14.179Z,1.37
2022-08-07T17:12:44.455Z,1.27
2022-08-07T17:15:05.271Z,1.40
2022-08-07T17:17:53.270Z,1.80
2022-08-07T17:20:32.967Z,1.40
2022-08-07T17:23:16.728Z,1.50
2022-08-07T17:26:01.733Z,1.20
2022-08-07T17:28:38.487Z,1.53
2022-08-07T17:31:24.901Z,1.43
2022-08-07T17:34:19.831Z,1.30
2022-08-07T17:36:59.952Z,1.50
2022-08-07T17:39:58.878Z,1.60
2022-08-07T17:42:59.797Z,1.40
2022-08-07T17:45:35.315Z,1.40
2022-08-07T17:48:12.641Z,1.57
2022-08-07T17:51:01.552Z,1.50
2022-08-07T17:54:00.751Z,1.40
2022-08-07T17:56:36.624Z,1.50
2022-08-07T17:59:24.696Z,1.57
2022-08-07T18:02:05.663Z,1.90
2022-08-07T18:04:43.786Z,1.57
2022-08-07T18:07:43.675Z,1.70
2022-08-07T18:10:32.000Z,1.60
2022-08-07T18:13:23.093Z,1.60
2022-08-07T18:16:05.079Z,1.80
2022-08-07T18:21:02.429Z,2.53
2022-08-07T18:21:58.142Z,2.23
2022-08-07T18:24:34.280Z,2.73
2022-08-07T18:27:39.126Z,2.30
2022-08-07T18:30:32.412Z,2.33
2022-08-07T18:33:55.465Z,2.40
2022-08-07T18:36:35.940Z,2.20
2022-08-07T18:40:06.373Z,1.63
2022-08-07T18:42:18.709Z,1.90
2022-08-07T18:45:43.048Z,1.63
2022-08-07T18:48:01.399Z,1.93
2022-08-07T18:50:59.133Z,1.83
2022-08-07T18:53:48.631Z,2.27
2022-08-07T18:56:37.635Z,2.03
2022-08-07T18:59:46.732Z,1.80
2022-08-07T19:02:42.444Z,2.43
2022-08-07T19:06:02.483Z,2.20
2022-08-07T19:08:22.289Z,1.87
2022-08-07T19:10:55.404Z,2.00
2022-08-07T19:13:35.007Z,2.23
2022-08-07T19:17:04.303Z,2.20
2022-08-07T19:19:04.831Z,1.93
2022-08-07T19:21:56.877Z,2.10
2022-08-07T19:24:44.339Z,1.90
2022-08-07T19:28:56.895Z,2.07
2022-08-07T19:30:55.946Z,1.97
2022-08-07T19:33:10.198Z,2.57
2022-08-07T19:35:43.965Z,2.30
2022-08-07T19:38:17.651Z,2.00
2022-08-07T19:40:50.797Z,2.73
2022-08-07T19:43:46.085Z,2.60
2022-08-07T19:46:17.906Z,2.33
2022-08-07T19:48:53.492Z,2.17
2022-08-07T19:51:50.707Z,2.27
2022-08-07T19:54:35.607Z,2.40
2022-08-07T19:58:01.099Z,2.10
2022-08-07T20:00:08.858Z,2.10
2022-08-07T20:02:53.490Z,2.13
2022-08-07T20:05:28.083Z,2.23
2022-08-07T20:08:02.611Z,2.17
2022-08-07T20:10:55.074Z,2.40
2022-08-07T20:13:32.917Z,2.20
2022-08-07T20:16:04.515Z,2.10
2022-08-07T20:18:34.862Z,2.37
2022-08-07T20:21:21.190Z,2.43
2022-08-07T20:23:54.738Z,2.20
2022-08-07T20:26:32.692Z,2.47
2022-08-07T20:29:16.984Z,2.47
2022-08-07T20:32:11.423Z,2.20
2022-08-07T20:34:53.035Z,2.17
2022-08-07T20:37:25.442Z,2.37
2022-08-07T20:40:02.268Z,1.90
2022-08-07T20:42:35.938Z,2.50
2022-08-07T20:45:33.491Z,2.10
2022-08-07T20:47:58.629Z,2.17
2022-08-07T20:50:30.540Z,2.30
2022-08-07T20:52:59.828Z,2.00
2022-08-07T20:55:32.045Z,2.20
2022-08-07T20:58:12.248Z,2.10
2022-08-07T21:00:56.148Z,1.93
2022-08-07T21:03:26.963Z,2.17
2022-08-07T21:06:00.876Z,2.20
2022-08-07T21:08:38.246Z,2.13
2022-08-07T21:11:14.213Z,1.93
2022-08-07T21:14:29.401Z,1.93
2022-08-07T21:16:46.795Z,1.93
2022-08-07T21:19:32.131Z,2.00
2022-08-07T21:22:19.046Z,2.30
2022-08-07T21:25:12.980Z,2.13
2022-08-07T21:28:04.159Z,2.30
2022-08-07T21:30:46.767Z,2.10
2022-08-07T21:33:23.166Z,2.40
2022-08-07T21:36:05.652Z,2.27
2022-08-07T21:38:54.455Z,2.90
2022-08-07T21:41:38.285Z,2.30
2022-08-07T21:44:30.594Z,2.37
2022-08-07T21:47:17.338Z,2.27
2022-08-07T21:50:02.348Z,1.80
2022-08-07T21:52:45.220Z,2.20
2022-08-07T21:55:29.904Z,2.30
2022-08-07T21:58:30.027Z,2.30
2022-08-07T22:01:08.492Z,2.60
2022-08-07T22:03:49.359Z,2.30
2022-08-07T22:06:29.999Z,2.10
2022-08-07T22:10:14.477Z,2.57
2022-08-07T22:12:49.885Z,2.43
2022-08-07T22:16:40.948Z,2.57
2022-08-07T22:18:25.516Z,2.30
2022-08-07T22:21:01.672Z,2.10
2022-08-07T22:23:41.984Z,2.50
2022-08-07T22:26:25.855Z,2.70
2022-08-07T22:29:02.739Z,2.63
2022-08-07T22:31:56.306Z,2.50
2022-08-07T22:34:39.987Z,2.20
2022-08-07T22:38:03.212Z,2.50
2022-08-07T22:40:29.044Z,2.57
2022-08-07T22:43:13.656Z,2.20
2022-08-07T22:47:01.866Z,2.20
2022-08-07T22:49:37.904Z,2.13
2022-08-07T22:52:37.523Z,2.20
2022-08-07T22:55:48.491Z,2.20
2022-08-07T22:58:43.246Z,1.87
2022-08-07T23:02:00.708Z,2.50
2022-08-07T23:04:57.933Z,2.33
2022-08-07T23:07:55.108Z,2.30
2022-08-07T23:10:42.041Z,2.70
2022-08-07T23:13:48.991Z,2.70
2022-08-07T23:16:55.281Z,2.87
2022-08-07T23:19:59.864Z,2.60
2022-08-07T23:22:43.329Z,2.70
2022-08-07T23:25:29.685Z,2.50
2022-08-07T23:28:22.923Z,2.40
2022-08-07T23:32:49.445Z,2.40
2022-08-07T23:34:46.375Z,2.83
2022-08-07T23:38:01.672Z,2.50
2022-08-07T23:40:37.509Z,2.33
2022-08-07T23:43:44.991Z,2.80
2022-08-07T23:46:50.767Z,2.30
2022-08-07T23:49:53.324Z,2.80
2022-08-07T23:53:05.211Z,2.27
2022-08-07T23:55:46.958Z,2.60
2022-08-07T23:58:36.265Z,2.70
